createdAt,value
2019-02-02T00:01:17.242Z,1.30
2019-02-02T00:06:23.896Z,1.20
2019-02-02T00:11:30.481Z,1.30
2019-02-02T00:16:38.552Z,1.30
2019-02-02T00:21:46.557Z,1.20
2019-02-02T00:27:02.912Z,1.20
2019-02-02T00:32:08.588Z,1.20
2019-02-02T00:37:14.357Z,1.20
2019-02-02T00:42:20.951Z,1.30
2019-02-02T00:47:27.536Z,1.30
2019-02-02T00:52:33.879Z,1.30
2019-02-02T00:57:40.105Z,1.30
2019-02-02T01:02:46.382Z,1.30
2019-02-02T01:07:54.312Z,1.30
2019-02-02T01:13:00.865Z,1.30
2019-02-02T01:18:07.970Z,1.30
2019-02-02T01:23:13.653Z,1.30
2019-02-02T01:28:19.358Z,1.30
2019-02-02T01:33:26.035Z,1.30
2019-02-02T01:38:32.394Z,1.30
2019-02-02T01:43:38.632Z,1.20
2019-02-02T01:48:46.302Z,1.20
2019-02-02T01:53:53.130Z,1.20
2019-02-02T01:58:59.969Z,1.20
2019-02-02T02:04:07.860Z,1.20
2019-02-02T02:09:16.595Z,1.20
2019-02-02T02:14:23.270Z,1.30
2019-02-02T02:19:29.265Z,1.30
2019-02-02T02:24:35.293Z,1.10
2019-02-02T02:29:42.949Z,1.20
2019-02-02T02:34:49.352Z,1.20
2019-02-02T02:39:55.599Z,1.20
2019-02-02T02:45:02.183Z,1.20
2019-02-02T02:50:14.891Z,1.30
2019-02-02T02:55:21.552Z,1.30
2019-02-02T03:00:30.218Z,1.30
2019-02-02T03:05:38.354Z,1.40
2019-02-02T03:10:44.708Z,1.30
2019-02-02T03:15:50.914Z,1.30
2019-02-02T03:20:57.012Z,1.40
2019-02-02T03:26:03.134Z,1.40
2019-02-02T03:31:08.745Z,1.40
2019-02-02T03:36:16.770Z,1.40
2019-02-02T03:41:23.343Z,1.40
2019-02-02T03:46:29.716Z,1.40
2019-02-02T03:51:37.490Z,1.30
2019-02-02T03:56:43.985Z,1.30
2019-02-02T04:01:50.471Z,1.30
2019-02-02T04:06:56.965Z,1.30
2019-02-02T04:12:03.167Z,1.30
2019-02-02T04:17:09.207Z,1.30
2019-02-02T04:22:17.472Z,1.20
2019-02-02T04:27:23.607Z,1.20
2019-02-02T04:32:29.741Z,1.10
2019-02-02T04:37:38.150Z,1.10
2019-02-02T04:43:02.484Z,1.00
2019-02-02T04:48:09.172Z,1.00
2019-02-02T04:53:15.961Z,0.90
2019-02-02T04:58:23.698Z,0.80
2019-02-02T05:03:29.985Z,0.80
2019-02-02T05:08:49.760Z,0.70
2019-02-02T05:13:56.401Z,0.70
2019-02-02T05:19:02.834Z,0.70
2019-02-02T05:24:08.460Z,0.60
2019-02-02T05:29:16.325Z,0.70
2019-02-02T05:34:22.785Z,0.60
2019-02-02T05:39:29.166Z,0.60
2019-02-02T05:44:35.619Z,0.60
2019-02-02T05:49:43.407Z,0.60
2019-02-02T05:54:49.900Z,0.60
2019-02-02T05:59:57.764Z,0.60
2019-02-02T06:05:06.018Z,0.50
2019-02-02T06:10:19.712Z,0.60
2019-02-02T06:15:28.422Z,0.60
2019-02-02T06:20:52.910Z,0.70
2019-02-02T06:25:59.247Z,0.70
2019-02-02T06:31:05.525Z,0.80
2019-02-02T06:36:10.920Z,0.80
2019-02-02T06:41:17.523Z,0.70
2019-02-02T06:46:23.939Z,0.80
2019-02-02T06:51:30.613Z,0.80
2019-02-02T06:56:37.299Z,0.90
2019-02-02T07:01:43.943Z,0.90
2019-02-02T07:06:50.519Z,0.90
2019-02-02T07:11:56.729Z,0.90
2019-02-02T07:17:04.801Z,0.90
2019-02-02T07:22:10.311Z,0.90
2019-02-02T07:27:15.872Z,1.00
2019-02-02T07:32:21.930Z,1.00
2019-02-02T07:37:28.578Z,1.00
2019-02-02T07:42:35.627Z,1.00
2019-02-02T07:47:53.689Z,1.10
2019-02-02T07:53:00.362Z,1.10
2019-02-02T07:58:06.882Z,1.10
2019-02-02T08:03:12.565Z,1.00
2019-02-02T08:08:19.333Z,1.10
2019-02-02T08:13:26.016Z,1.10
2019-02-02T08:18:32.737Z,1.00
2019-02-02T08:23:39.150Z,1.00
2019-02-02T08:28:45.782Z,1.10
2019-02-02T08:33:52.326Z,1.10
2019-02-02T08:39:00.203Z,1.20
2019-02-02T08:44:06.917Z,1.20
2019-02-02T08:49:13.457Z,1.30
2019-02-02T08:54:19.902Z,1.30
2019-02-02T08:59:25.903Z,1.30
2019-02-02T09:04:32.194Z,1.40
2019-02-02T09:09:38.673Z,1.40
2019-02-02T09:14:45.358Z,1.40
2019-02-02T09:19:53.288Z,1.40
2019-02-02T09:24:59.893Z,1.50
2019-02-02T09:30:10.810Z,1.60
2019-02-02T09:35:17.228Z,1.60
2019-02-02T09:40:25.690Z,1.60
2019-02-02T09:45:32.339Z,1.70
2019-02-02T09:50:38.313Z,1.70
2019-02-02T09:55:44.327Z,1.70
2019-02-02T10:00:50.943Z,1.80
2019-02-02T10:05:57.085Z,1.80
2019-02-02T10:11:03.850Z,1.80
2019-02-02T10:16:09.271Z,1.80
2019-02-02T10:21:34.371Z,1.90
2019-02-02T10:26:41.878Z,2.00
2019-02-02T10:31:48.204Z,2.00
2019-02-02T10:36:54.582Z,2.10
2019-02-02T10:42:01.051Z,2.00
2019-02-02T10:47:06.501Z,2.10
2019-02-02T10:52:11.874Z,2.10
2019-02-02T10:57:20.209Z,2.10
2019-02-02T11:02:26.931Z,2.20
2019-02-02T11:07:33.641Z,2.10
2019-02-02T11:12:40.296Z,2.20
2019-02-02T11:17:47.403Z,2.20
2019-02-02T11:22:54.871Z,2.20
2019-02-02T11:28:01.623Z,2.20
2019-02-02T11:33:08.478Z,2.10
2019-02-02T11:38:15.203Z,2.00
2019-02-02T11:43:23.037Z,2.10
2019-02-02T11:48:30.267Z,2.10
2019-02-02T11:53:37.610Z,2.10
2019-02-02T11:58:43.911Z,2.10
2019-02-02T12:03:50.148Z,2.10
2019-02-02T12:08:56.355Z,2.20
2019-02-02T12:14:03.407Z,2.20
2019-02-02T12:19:09.970Z,2.00
2019-02-02T12:24:16.498Z,2.10
2019-02-02T12:29:22.703Z,2.20
2019-02-02T12:34:28.815Z,2.20
2019-02-02T12:39:36.232Z,2.20
2019-02-02T12:44:42.691Z,2.20
2019-02-02T12:49:50.597Z,2.10
2019-02-02T12:55:00.049Z,2.10
2019-02-02T13:00:14.836Z,2.20
2019-02-02T13:05:22.699Z,2.20
2019-02-02T13:10:30.554Z,2.20
2019-02-02T13:15:36.789Z,2.20
2019-02-02T13:20:42.983Z,2.30
2019-02-02T13:25:49.195Z,2.40
2019-02-02T13:30:55.355Z,2.50
2019-02-02T13:36:02.947Z,2.50
2019-02-02T13:41:08.520Z,2.40
2019-02-02T13:46:14.125Z,2.50
2019-02-02T13:51:20.630Z,2.40
2019-02-02T13:56:28.364Z,2.40
2019-02-02T14:01:41.711Z,2.30
2019-02-02T14:06:42.530Z,2.50
2019-02-02T14:11:56.123Z,2.40
2019-02-02T14:17:04.130Z,2.50
2019-02-02T14:22:09.845Z,2.30
2019-02-02T14:27:15.583Z,2.30
2019-02-02T14:32:21.827Z,2.20
2019-02-02T14:37:29.289Z,2.10
2019-02-02T14:42:36.315Z,2.20
2019-02-02T14:47:44.141Z,2.40
2019-02-02T14:52:54.908Z,2.50
2019-02-02T14:58:01.218Z,2.50
2019-02-02T15:03:07.234Z,2.60
2019-02-02T15:08:12.975Z,2.60
2019-02-02T15:13:18.788Z,2.20
2019-02-02T15:18:26.852Z,2.40
2019-02-02T15:23:35.946Z,2.50
2019-02-02T15:28:45.143Z,2.30
2019-02-02T15:33:54.947Z,2.20
2019-02-02T15:39:01.382Z,2.30
2019-02-02T15:44:08.667Z,2.30
2019-02-02T15:49:14.278Z,2.40
2019-02-02T15:54:22.627Z,2.20
2019-02-02T15:59:29.901Z,2.00
2019-02-02T16:04:36.621Z,2.10
2019-02-02T16:09:44.756Z,2.10
2019-02-02T16:14:52.604Z,1.80
2019-02-02T16:19:59.004Z,1.80
2019-02-02T16:25:10.496Z,2.00
2019-02-02T16:30:20.468Z,2.00
2019-02-02T16:35:28.184Z,2.10
2019-02-02T16:40:34.717Z,2.10
2019-02-02T16:45:42.652Z,2.10
2019-02-02T16:50:49.188Z,2.00
2019-02-02T16:55:55.558Z,2.00
2019-02-02T17:01:02.306Z,2.00
2019-02-02T17:06:08.193Z,2.00
2019-02-02T17:11:14.152Z,1.90
2019-02-02T17:16:19.960Z,1.90
2019-02-02T17:21:29.075Z,1.90
2019-02-02T17:26:47.708Z,1.90
2019-02-02T17:31:54.062Z,1.90
2019-02-02T17:37:00.476Z,2.00
2019-02-02T17:42:07.362Z,1.90
2019-02-02T17:47:13.930Z,1.90
2019-02-02T17:52:19.591Z,1.90
2019-02-02T17:57:26.732Z,2.00
2019-02-02T18:02:33.295Z,1.90
2019-02-02T18:07:39.610Z,2.00
2019-02-02T18:12:46.340Z,2.00
2019-02-02T18:17:52.547Z,2.00
2019-02-02T18:22:59.275Z,2.00
2019-02-02T18:28:06.231Z,2.00
2019-02-02T18:33:11.943Z,2.00
2019-02-02T18:38:17.678Z,2.00
2019-02-02T18:43:23.931Z,2.00
2019-02-02T18:48:30.677Z,2.10
2019-02-02T18:53:37.446Z,2.10
2019-02-02T18:58:47.051Z,2.10
2019-02-02T19:03:53.481Z,2.10
2019-02-02T19:08:59.770Z,2.00
2019-02-02T19:14:06.403Z,2.00
2019-02-02T19:19:12.201Z,2.00
2019-02-02T19:24:18.110Z,2.10
2019-02-02T19:29:24.731Z,2.00
2019-02-02T19:34:31.384Z,2.00
2019-02-02T19:39:39.679Z,2.00
2019-02-02T19:44:48.092Z,2.00
2019-02-02T19:49:54.652Z,2.00
2019-02-02T19:55:01.419Z,1.90
2019-02-02T20:00:14.951Z,1.90
2019-02-02T20:05:28.825Z,1.90
2019-02-02T20:10:29.917Z,1.90
2019-02-02T20:15:36.234Z,1.90
2019-02-02T20:20:44.140Z,1.80
2019-02-02T20:25:52.522Z,1.80
2019-02-02T20:30:59.188Z,1.70
2019-02-02T20:36:06.313Z,1.80
2019-02-02T20:41:13.345Z,1.80
2019-02-02T20:46:20.033Z,1.80
2019-02-02T20:51:26.890Z,1.90
2019-02-02T20:56:34.517Z,1.80
2019-02-02T21:01:41.157Z,1.80
2019-02-02T21:06:47.825Z,1.80
2019-02-02T21:11:57.270Z,1.70
2019-02-02T21:17:04.205Z,1.70
2019-02-02T21:22:09.952Z,1.80
2019-02-02T21:27:16.435Z,1.80
2019-02-02T21:32:22.586Z,1.60
2019-02-02T21:37:30.523Z,1.50
2019-02-02T21:42:38.342Z,1.60
2019-02-02T21:47:44.612Z,1.50
2019-02-02T21:52:51.016Z,1.50
2019-02-02T21:57:57.231Z,1.50
2019-02-02T22:03:03.928Z,1.40
2019-02-02T22:08:09.673Z,1.00
2019-02-02T22:13:15.669Z,1.10
2019-02-02T22:18:22.957Z,1.00
2019-02-02T22:23:30.233Z,1.10
2019-02-02T22:28:36.997Z,1.20
2019-02-02T22:33:45.259Z,1.30
2019-02-02T22:38:52.090Z,1.30
2019-02-02T22:43:58.362Z,1.10
2019-02-02T22:49:04.662Z,0.90
2019-02-02T22:54:10.236Z,0.80
2019-02-02T22:59:16.933Z,1.00
2019-02-02T23:04:28.979Z,0.90
2019-02-02T23:09:45.298Z,0.80
2019-02-02T23:15:24.275Z,0.60
2019-02-02T23:20:30.870Z,0.80
2019-02-02T23:25:36.994Z,0.50
2019-02-02T23:30:44.837Z,0.50
2019-02-02T23:35:51.840Z,0.50
2019-02-02T23:40:58.518Z,0.30
2019-02-02T23:46:05.173Z,0.40
2019-02-02T23:51:10.750Z,0.40
2019-02-02T23:56:18.491Z,0.50
